createdAt,value
2018-11-06T00:00:53.262Z,100184.48
2018-11-06T00:03:28.037Z,100184.19
2018-11-06T00:05:57.339Z,100185.69
2018-11-06T00:08:26.745Z,100185.77
2018-11-06T00:10:56.243Z,100182.44
2018-11-06T00:13:25.762Z,100177.62
2018-11-06T00:15:55.460Z,100175.56
2018-11-06T00:18:25.308Z,100175.24
2018-11-06T00:20:54.640Z,100167.82
2018-11-06T00:23:25.715Z,100167.13
2018-11-06T00:25:55.027Z,100173.44
2018-11-06T00:28:24.375Z,100170.80
2018-11-06T00:30:53.834Z,100168.22
2018-11-06T00:33:23.444Z,100169.62
2018-11-06T00:35:52.819Z,100170.19
2018-11-06T00:38:22.575Z,100170.36
2018-11-06T00:40:52.806Z,100165.34
2018-11-06T00:43:22.303Z,100165.43
2018-11-06T00:45:51.836Z,100163.88
2018-11-06T00:48:21.186Z,100162.35
2018-11-06T00:50:50.673Z,100159.48
2018-11-06T00:53:20.095Z,100159.27
2018-11-06T00:55:49.718Z,100164.55
2018-11-06T00:58:19.702Z,100169.41
2018-11-06T01:00:49.385Z,100169.98
2018-11-06T01:03:18.742Z,100177.31
2018-11-06T01:05:48.469Z,100175.25
2018-11-06T01:08:18.158Z,100174.64
2018-11-06T01:10:47.666Z,100182.17
2018-11-06T01:13:17.291Z,100181.77
2018-11-06T01:15:46.869Z,100188.15
2018-11-06T01:18:16.409Z,100188.69
2018-11-06T01:20:45.814Z,100187.08
2018-11-06T01:23:15.234Z,100182.05
2018-11-06T01:25:46.257Z,100181.19
2018-11-06T01:28:15.668Z,100183.61
2018-11-06T01:30:45.971Z,100182.46
2018-11-06T01:33:15.917Z,100189.87
2018-11-06T01:35:46.123Z,100182.92
2018-11-06T01:38:16.642Z,100189.09
2018-11-06T01:40:46.900Z,100184.31
2018-11-06T01:43:16.654Z,100186.63
2018-11-06T01:45:46.666Z,100189.25
2018-11-06T01:48:16.413Z,100185.87
2018-11-06T01:50:46.208Z,100170.69
2018-11-06T01:53:15.925Z,100166.81
2018-11-06T01:55:45.644Z,100166.44
2018-11-06T01:58:15.331Z,100167.35
2018-11-06T02:00:48.009Z,100173.94
2018-11-06T02:03:18.259Z,100162.57
2018-11-06T02:05:48.994Z,100169.61
2018-11-06T02:08:18.491Z,100173.94
2018-11-06T02:10:47.893Z,100173.40
2018-11-06T02:13:23.728Z,100165.87
2018-11-06T02:15:53.460Z,100162.86
2018-11-06T02:18:24.619Z,100157.67
2018-11-06T02:20:55.027Z,100147.05
2018-11-06T02:23:24.357Z,100156.66
2018-11-06T02:25:54.759Z,100157.22
2018-11-06T02:28:24.152Z,100155.98
2018-11-06T02:30:53.748Z,100156.06
2018-11-06T02:33:23.245Z,100151.33
2018-11-06T02:35:52.653Z,100145.66
2018-11-06T02:38:22.437Z,100142.65
2018-11-06T02:40:52.596Z,100151.58
2018-11-06T02:43:21.914Z,100136.60
2018-11-06T02:45:51.478Z,100143.19
2018-11-06T02:48:21.747Z,100132.66
2018-11-06T02:50:51.245Z,100129.48
2018-11-06T02:53:20.790Z,100121.13
2018-11-06T02:55:51.107Z,100116.31
2018-11-06T02:58:21.579Z,100113.14
2018-11-06T03:00:52.102Z,100117.92
2018-11-06T03:03:21.489Z,100133.44
2018-11-06T03:05:51.025Z,100141.87
2018-11-06T03:08:20.415Z,100146.23
2018-11-06T03:10:50.218Z,100140.18
2018-11-06T03:13:19.475Z,100151.88
2018-11-06T03:15:49.721Z,100145.73
2018-11-06T03:18:19.039Z,100154.05
2018-11-06T03:20:48.508Z,100151.70
2018-11-06T03:23:17.863Z,100150.64
2018-11-06T03:25:47.360Z,100146.89
2018-11-06T03:28:16.927Z,100121.00
2018-11-06T03:30:46.431Z,100117.42
2018-11-06T03:33:16.067Z,100124.01
2018-11-06T03:35:45.699Z,100123.31
2018-11-06T03:38:15.360Z,100124.45
2018-11-06T03:40:45.024Z,100124.66
2018-11-06T03:43:14.535Z,100153.10
2018-11-06T03:45:43.952Z,100154.00
2018-11-06T03:48:13.785Z,100148.33
2018-11-06T03:50:43.501Z,100158.41
2018-11-06T03:53:13.008Z,100180.48
2018-11-06T03:55:43.031Z,100174.92
2018-11-06T03:58:12.792Z,100184.92
2018-11-06T04:00:42.466Z,100178.42
2018-11-06T04:03:12.110Z,100176.61
2018-11-06T04:05:41.690Z,100174.84
2018-11-06T04:08:11.882Z,100179.25
2018-11-06T04:10:41.618Z,100176.70
2018-11-06T04:13:11.630Z,100175.46
2018-11-06T04:15:40.974Z,100172.70
2018-11-06T04:18:10.614Z,100162.24
2018-11-06T04:20:40.401Z,100164.64
2018-11-06T04:23:10.913Z,100161.25
2018-11-06T04:25:40.793Z,100156.61
2018-11-06T04:28:10.979Z,100152.20
2018-11-06T04:30:40.701Z,100157.47
2018-11-06T04:33:10.438Z,100153.27
2018-11-06T04:35:39.835Z,100159.28
2018-11-06T04:38:09.933Z,100167.34
2018-11-06T04:40:39.868Z,100174.92
2018-11-06T04:43:12.431Z,100163.92
2018-11-06T04:45:41.965Z,100161.95
2018-11-06T04:48:11.500Z,100166.67
2018-11-06T04:50:40.999Z,100156.91
2018-11-06T04:53:10.660Z,100152.47
2018-11-06T04:55:41.072Z,100152.38
2018-11-06T04:58:10.911Z,100155.42
2018-11-06T05:00:40.384Z,100161.47
2018-11-06T05:03:10.419Z,100153.94
2018-11-06T05:05:39.806Z,100154.30
2018-11-06T05:08:10.793Z,100154.88
2018-11-06T05:10:40.250Z,100156.57
2018-11-06T05:13:10.501Z,100152.78
2018-11-06T05:15:39.980Z,100150.15
2018-11-06T05:18:10.682Z,100136.28
2018-11-06T05:20:40.158Z,100125.61
2018-11-06T05:23:09.850Z,100122.20
2018-11-06T05:25:39.340Z,100126.23
2018-11-06T05:28:08.989Z,100114.30
2018-11-06T05:30:38.328Z,100112.11
2018-11-06T05:33:07.688Z,100113.17
2018-11-06T05:35:37.111Z,100111.86
2018-11-06T05:38:06.829Z,100115.36
2018-11-06T05:41:02.255Z,100115.44
2018-11-06T05:43:31.603Z,100101.48
2018-11-06T05:46:01.502Z,100105.84
2018-11-06T05:48:31.117Z,100110.34
2018-11-06T05:51:01.505Z,100113.84
2018-11-06T05:53:31.914Z,100121.42
2018-11-06T05:56:01.595Z,100128.87
2018-11-06T05:58:31.027Z,100132.91
2018-11-06T06:01:00.334Z,100138.96
2018-11-06T06:03:29.648Z,100149.51
2018-11-06T06:05:59.916Z,100148.81
2018-11-06T06:08:29.374Z,100162.36
2018-11-06T06:10:59.131Z,100164.62
2018-11-06T06:13:28.603Z,100165.16
2018-11-06T06:15:59.482Z,100166.57
2018-11-06T06:18:29.133Z,100167.52
2018-11-06T06:20:58.660Z,100174.27
2018-11-06T06:23:28.140Z,100163.89
2018-11-06T06:25:57.670Z,100168.84
2018-11-06T06:28:27.208Z,100177.69
2018-11-06T06:30:56.984Z,100175.92
2018-11-06T06:33:26.704Z,100179.46
2018-11-06T06:35:56.427Z,100179.55
2018-11-06T06:38:25.928Z,100176.62
2018-11-06T06:40:56.764Z,100180.95
2018-11-06T06:43:26.716Z,100178.31
2018-11-06T06:45:57.490Z,100169.95
2018-11-06T06:48:28.917Z,100175.22
2018-11-06T06:50:58.528Z,100185.84
2018-11-06T06:53:29.212Z,100185.84
2018-11-06T06:55:58.871Z,100186.37
2018-11-06T06:58:28.636Z,100192.59
2018-11-06T07:00:58.205Z,100196.55
2018-11-06T07:03:30.812Z,100201.33
2018-11-06T07:06:00.274Z,100211.95
2018-11-06T07:08:29.705Z,100216.14
2018-11-06T07:10:59.328Z,100212.86
2018-11-06T07:13:28.792Z,100206.27
2018-11-06T07:15:58.537Z,100213.64
2018-11-06T07:18:31.076Z,100228.88
2018-11-06T07:21:00.490Z,100238.03
2018-11-06T07:23:29.818Z,100247.58
2018-11-06T07:25:59.769Z,100252.69
2018-11-06T07:28:29.156Z,100257.80
2018-11-06T07:30:58.830Z,100259.48
2018-11-06T07:33:28.254Z,100265.29
2018-11-06T07:35:58.059Z,100272.79
2018-11-06T07:38:27.627Z,100272.91
2018-11-06T07:40:58.782Z,100275.22
2018-11-06T07:43:28.914Z,100268.78
2018-11-06T07:45:58.436Z,100272.31
2018-11-06T07:48:28.176Z,100267.48
2018-11-06T07:50:57.745Z,100255.86
2018-11-06T07:53:27.325Z,100258.88
2018-11-06T07:55:57.691Z,100255.80
2018-11-06T07:58:27.388Z,100255.95
2018-11-06T08:00:57.918Z,100259.22
2018-11-06T08:03:27.938Z,100255.09
2018-11-06T08:05:58.452Z,100263.31
2018-11-06T08:08:28.073Z,100270.34
2018-11-06T08:10:57.844Z,100267.84
2018-11-06T08:13:28.518Z,100266.71
2018-11-06T08:15:58.121Z,100263.34
2018-11-06T08:18:28.782Z,100258.47
2018-11-06T08:20:58.500Z,100253.69
2018-11-06T08:23:28.207Z,100251.83
2018-11-06T08:25:57.881Z,100253.05
2018-11-06T08:28:28.935Z,100262.12
2018-11-06T08:30:59.752Z,100261.39
2018-11-06T08:33:30.941Z,100264.63
2018-11-06T08:36:00.510Z,100265.85
2018-11-06T08:38:30.190Z,100266.92
2018-11-06T08:41:03.246Z,100265.41
2018-11-06T08:43:32.800Z,100270.64
2018-11-06T08:46:02.424Z,100269.61
2018-11-06T08:48:33.647Z,100264.87
2018-11-06T08:51:03.377Z,100263.31
2018-11-06T08:53:32.938Z,100251.67
2018-11-06T08:56:03.282Z,100253.84
2018-11-06T08:58:32.995Z,100255.09
2018-11-06T09:01:02.396Z,100252.81
2018-11-06T09:03:32.314Z,100246.67
2018-11-06T09:06:02.336Z,100248.63
2018-11-06T09:08:32.036Z,100253.84
2018-11-06T09:11:01.679Z,100256.36
2018-11-06T09:13:32.379Z,100259.77
2018-11-06T09:16:03.009Z,100259.94
2018-11-06T09:18:32.574Z,100257.72
2018-11-06T09:21:02.440Z,100259.00
2018-11-06T09:23:32.079Z,100254.27
2018-11-06T09:26:01.659Z,100250.58
2018-11-06T09:28:31.375Z,100251.11
2018-11-06T09:31:01.046Z,100261.89
2018-11-06T09:33:31.259Z,100265.62
2018-11-06T09:36:00.898Z,100259.55
2018-11-06T09:38:37.171Z,100260.86
2018-11-06T09:41:07.971Z,100264.25
2018-11-06T09:43:37.695Z,100266.12
2018-11-06T09:46:07.200Z,100263.47
2018-11-06T09:48:37.563Z,100263.08
2018-11-06T09:51:06.930Z,100258.99
2018-11-06T09:53:36.285Z,100252.11
2018-11-06T09:56:06.365Z,100250.11
2018-11-06T09:58:35.800Z,100252.77
2018-11-06T10:01:05.451Z,100247.87
2018-11-06T10:03:35.166Z,100252.03
2018-11-06T10:06:04.822Z,100250.53
2018-11-06T10:08:34.521Z,100244.55
2018-11-06T10:11:10.829Z,100232.41
2018-11-06T10:13:40.308Z,100228.97
2018-11-06T10:16:09.966Z,100222.33
2018-11-06T10:18:39.720Z,100220.58
2018-11-06T10:21:10.604Z,100218.46
2018-11-06T10:23:40.119Z,100219.39
2018-11-06T10:26:09.878Z,100219.77
2018-11-06T10:28:40.120Z,100232.03
2018-11-06T10:31:11.498Z,100221.11
2018-11-06T10:33:42.945Z,100221.99
2018-11-06T10:36:12.543Z,100228.05
2018-11-06T10:38:42.810Z,100233.84
2018-11-06T10:41:12.548Z,100225.40
2018-11-06T10:43:43.171Z,100223.05
2018-11-06T10:46:13.074Z,100218.14
2018-11-06T10:48:42.983Z,100208.62
2018-11-06T10:51:14.235Z,100204.35
2018-11-06T10:53:44.730Z,100198.19
2018-11-06T10:56:14.409Z,100196.05
2018-11-06T10:58:44.011Z,100186.28
2018-11-06T11:01:19.224Z,100173.86
2018-11-06T11:04:26.363Z,100176.67
2018-11-06T11:06:56.729Z,100177.06
2018-11-06T11:09:26.992Z,100174.91
2018-11-06T11:11:56.619Z,100172.99
2018-11-06T11:14:26.921Z,100162.97
2018-11-06T11:16:56.674Z,100157.05
2018-11-06T11:19:26.345Z,100155.66
2018-11-06T11:21:55.857Z,100149.98
2018-11-06T11:24:26.893Z,100145.76
2018-11-06T11:26:56.328Z,100142.23
2018-11-06T11:29:26.498Z,100143.71
2018-11-06T11:31:56.082Z,100149.16
2018-11-06T11:34:26.202Z,100143.08
2018-11-06T11:36:56.623Z,100145.27
2018-11-06T11:39:27.111Z,100137.03
2018-11-06T11:41:57.611Z,100135.94
2018-11-06T11:44:28.650Z,100125.77
2018-11-06T11:46:58.187Z,100116.43
2018-11-06T11:49:27.860Z,100110.44
2018-11-06T11:51:58.455Z,100108.91
2018-11-06T11:54:28.792Z,100106.48
2018-11-06T11:56:58.602Z,100103.39
2018-11-06T11:59:28.414Z,100103.67
2018-11-06T12:01:58.496Z,100095.22
2018-11-06T12:04:28.329Z,100094.36
2018-11-06T12:06:57.850Z,100091.84
2018-11-06T12:09:27.648Z,100094.55
2018-11-06T12:11:57.771Z,100096.68
2018-11-06T12:14:27.581Z,100095.31
2018-11-06T12:16:57.398Z,100100.52
2018-11-06T12:19:27.158Z,100094.91
2018-11-06T12:21:56.583Z,100089.69
2018-11-06T12:24:26.124Z,100090.75
2018-11-06T12:26:55.527Z,100081.16
2018-11-06T12:29:25.080Z,100082.07
2018-11-06T12:31:54.575Z,100075.19
2018-11-06T12:34:25.277Z,100077.06
2018-11-06T12:36:55.382Z,100075.34
2018-11-06T12:39:24.860Z,100074.53
2018-11-06T12:41:55.325Z,100071.00
2018-11-06T12:44:24.847Z,100067.09
2018-11-06T12:46:54.334Z,100066.11
2018-11-06T12:49:24.416Z,100064.73
2018-11-06T12:51:54.551Z,100061.25
2018-11-06T12:54:24.081Z,100056.73
2018-11-06T12:56:54.683Z,100055.75
2018-11-06T12:59:24.310Z,100054.84
2018-11-06T13:01:53.833Z,100052.03
2018-11-06T13:04:24.522Z,100046.58
2018-11-06T13:06:54.385Z,100052.38
2018-11-06T13:09:24.178Z,100043.30
2018-11-06T13:11:53.939Z,100039.95
2018-11-06T13:14:23.771Z,100046.24
2018-11-06T13:16:53.393Z,100040.92
2018-11-06T13:19:24.638Z,100035.86
2018-11-06T13:21:54.752Z,100034.61
2018-11-06T13:24:25.203Z,100038.16
2018-11-06T13:26:55.080Z,100029.63
2018-11-06T13:29:26.164Z,100027.56
2018-11-06T13:31:55.564Z,100019.63
2018-11-06T13:34:34.798Z,100022.23
2018-11-06T13:37:04.236Z,100019.76
2018-11-06T13:39:33.801Z,100016.34
2018-11-06T13:42:06.926Z,100012.28
2018-11-06T13:44:37.810Z,99998.91
2018-11-06T13:47:10.244Z,100000.23
2018-11-06T13:49:39.885Z,99999.67
2018-11-06T13:52:10.024Z,99994.08
2018-11-06T13:54:43.262Z,99992.17
2018-11-06T13:57:14.037Z,99990.28
2018-11-06T13:59:43.895Z,99994.13
2018-11-06T14:02:14.281Z,99987.92
2018-11-06T14:04:45.031Z,99984.44
2018-11-06T14:07:15.427Z,99990.33
2018-11-06T14:09:46.169Z,99987.69
2018-11-06T14:12:15.780Z,99992.75
2018-11-06T14:14:46.225Z,99997.77
2018-11-06T14:17:15.710Z,100001.62
2018-11-06T14:19:45.470Z,100000.00
2018-11-06T14:22:15.719Z,100005.12
2018-11-06T14:24:54.898Z,100004.69
2018-11-06T14:27:24.834Z,100001.09
2018-11-06T14:29:56.268Z,99999.12
2018-11-06T14:32:26.568Z,100008.02
2018-11-06T14:34:57.797Z,100007.45
2018-11-06T14:37:27.309Z,100011.52
2018-11-06T14:39:57.528Z,100015.69
2018-11-06T14:42:27.942Z,100015.28
2018-11-06T14:44:58.789Z,100025.51
2018-11-06T14:47:28.477Z,100023.45
2018-11-06T14:49:59.189Z,100021.91
2018-11-06T14:52:28.844Z,100020.58
2018-11-06T14:54:59.135Z,100023.44
2018-11-06T14:57:28.553Z,100021.45
2018-11-06T14:59:59.738Z,100023.07
2018-11-06T15:02:30.657Z,100017.41
2018-11-06T15:05:02.769Z,100025.95
2018-11-06T15:07:32.733Z,100018.61
2018-11-06T15:10:03.468Z,100024.13
2018-11-06T15:12:33.835Z,100012.20
2018-11-06T15:15:04.933Z,100012.21
2018-11-06T15:17:34.790Z,100014.28
2018-11-06T15:20:05.164Z,100010.86
2018-11-06T15:22:35.068Z,100010.99
2018-11-06T15:25:04.596Z,100013.58
2018-11-06T15:27:41.171Z,100013.12
2018-11-06T15:30:13.830Z,100010.75
2018-11-06T15:32:43.680Z,100007.39
2018-11-06T15:35:15.294Z,100009.96
2018-11-06T15:37:45.003Z,100009.73
2018-11-06T15:40:16.459Z,100013.37
2018-11-06T15:42:46.409Z,100011.34
2018-11-06T15:45:17.142Z,100010.98
2018-11-06T15:47:47.835Z,100010.63
2018-11-06T15:50:18.472Z,100013.56
2018-11-06T15:52:48.891Z,100010.30
2018-11-06T15:55:21.540Z,100006.91
2018-11-06T15:57:51.145Z,100007.05
2018-11-06T16:00:22.373Z,100011.11
2018-11-06T16:02:52.241Z,100004.61
2018-11-06T16:05:22.181Z,99998.80
2018-11-06T16:07:51.910Z,100008.00
2018-11-06T16:10:23.101Z,100005.58
2018-11-06T16:12:54.135Z,100008.72
2018-11-06T16:15:24.223Z,100014.39
2018-11-06T16:17:53.798Z,100018.02
2018-11-06T16:20:23.591Z,100017.40
2018-11-06T16:22:53.913Z,100020.68
2018-11-06T16:25:23.680Z,100018.97
2018-11-06T16:27:54.872Z,100027.78
2018-11-06T16:30:24.881Z,100014.46
2018-11-06T16:32:55.434Z,100017.01
2018-11-06T16:35:25.451Z,100016.77
2018-11-06T16:37:55.919Z,100018.93
2018-11-06T16:40:25.682Z,100021.55
2018-11-06T16:42:56.429Z,100026.28
2018-11-06T16:45:26.827Z,100034.22
2018-11-06T16:47:56.546Z,100036.28
2018-11-06T16:50:27.574Z,100036.64
2018-11-06T16:52:57.739Z,100043.67
2018-11-06T16:55:27.755Z,100042.93
2018-11-06T16:57:57.417Z,100048.83
2018-11-06T17:00:27.945Z,100055.00
2018-11-06T17:02:57.544Z,100051.91
2018-11-06T17:05:27.293Z,100058.16
2018-11-06T17:07:56.872Z,100065.78
2018-11-06T17:10:26.669Z,100070.27
2018-11-06T17:12:56.742Z,100068.33
2018-11-06T17:15:26.304Z,100075.20
2018-11-06T17:17:56.422Z,100069.53
2018-11-06T17:20:27.303Z,100076.41
2018-11-06T17:22:57.340Z,100074.70
2018-11-06T17:25:28.040Z,100071.69
2018-11-06T17:27:58.064Z,100068.52
2018-11-06T17:30:27.702Z,100068.75
2018-11-06T17:32:57.260Z,100071.91
2018-11-06T17:35:26.929Z,100075.39
2018-11-06T17:37:56.601Z,100072.50
2018-11-06T17:40:26.369Z,100080.70
2018-11-06T17:42:56.772Z,100079.88
2018-11-06T17:45:26.800Z,100078.05
2018-11-06T17:47:56.244Z,100078.05
2018-11-06T17:50:25.815Z,100088.80
2018-11-06T17:52:55.840Z,100081.44
2018-11-06T17:55:25.976Z,100081.52
2018-11-06T17:57:55.955Z,100088.16
2018-11-06T18:00:25.796Z,100094.11
2018-11-06T18:02:55.310Z,100100.28
2018-11-06T18:05:25.780Z,100102.94
2018-11-06T18:07:55.342Z,100103.09
2018-11-06T18:10:25.138Z,100121.92
2018-11-06T18:12:54.497Z,100113.56
2018-11-06T18:15:23.927Z,100114.73
2018-11-06T18:17:54.135Z,100122.69
2018-11-06T18:20:23.656Z,100117.60
2018-11-06T18:22:53.836Z,100121.66
2018-11-06T18:25:24.696Z,100119.70
2018-11-06T18:27:55.156Z,100125.34
2018-11-06T18:30:26.589Z,100132.69
2018-11-06T18:32:56.313Z,100140.02
2018-11-06T18:35:25.823Z,100132.27
2018-11-06T18:37:55.514Z,100140.58
2018-11-06T18:40:25.228Z,100146.00
2018-11-06T18:42:55.025Z,100141.49
2018-11-06T18:45:24.754Z,100142.58
2018-11-06T18:47:54.707Z,100138.20
2018-11-06T18:50:24.255Z,100148.33
2018-11-06T18:52:54.545Z,100147.22
2018-11-06T18:55:24.306Z,100149.34
2018-11-06T18:57:54.697Z,100146.91
2018-11-06T19:00:24.856Z,100147.72
2018-11-06T19:02:54.662Z,100150.94
2018-11-06T19:05:24.884Z,100152.24
2018-11-06T19:07:54.498Z,100160.99
2018-11-06T19:10:24.259Z,100171.57
2018-11-06T19:12:55.333Z,100172.72
2018-11-06T19:15:26.291Z,100180.21
2018-11-06T19:17:56.427Z,100166.95
2018-11-06T19:20:25.998Z,100182.80
2018-11-06T19:22:56.425Z,100186.41
2018-11-06T19:25:29.428Z,100186.84
2018-11-06T19:28:00.187Z,100186.52
2018-11-06T19:30:30.223Z,100187.80
2018-11-06T19:32:59.889Z,100196.53
2018-11-06T19:35:29.814Z,100194.77
2018-11-06T19:38:00.385Z,100195.91
2018-11-06T19:40:31.197Z,100189.00
2018-11-06T19:43:00.699Z,100190.06
2018-11-06T19:45:30.377Z,100189.41
2018-11-06T19:47:59.898Z,100189.83
2018-11-06T19:50:29.379Z,100201.50
2018-11-06T19:52:58.967Z,100206.80
2018-11-06T19:55:29.098Z,100202.06
2018-11-06T19:57:58.588Z,100198.80
2018-11-06T20:00:28.682Z,100186.51
2018-11-06T20:02:58.133Z,100182.23
2018-11-06T20:05:28.522Z,100197.67
2018-11-06T20:07:59.021Z,100190.95
2018-11-06T20:10:28.483Z,100189.98
2018-11-06T20:12:57.894Z,100186.97
2018-11-06T20:15:28.149Z,100182.66
2018-11-06T20:17:57.795Z,100180.79
2018-11-06T20:20:28.065Z,100192.17
2018-11-06T20:22:57.641Z,100188.97
2018-11-06T20:25:27.364Z,100194.88
2018-11-06T20:27:57.016Z,100191.16
2018-11-06T20:30:27.425Z,100185.20
2018-11-06T20:32:57.086Z,100192.40
2018-11-06T20:35:26.592Z,100188.27
2018-11-06T20:37:56.468Z,100196.47
2018-11-06T20:40:27.507Z,100189.95
2018-11-06T20:42:57.053Z,100186.84
2018-11-06T20:45:26.777Z,100189.95
2018-11-06T20:47:57.099Z,100186.95
2018-11-06T20:50:26.755Z,100195.91
2018-11-06T20:52:56.657Z,100197.91
2018-11-06T20:55:26.436Z,100202.73
2018-11-06T20:57:56.054Z,100209.83
2018-11-06T21:00:28.110Z,100207.67
2018-11-06T21:02:59.099Z,100210.89
2018-11-06T21:05:28.864Z,100215.98
2018-11-06T21:07:58.730Z,100215.12
2018-11-06T21:10:29.718Z,100213.34
2018-11-06T21:12:59.303Z,100220.22
2018-11-06T21:15:28.750Z,100218.72
2018-11-06T21:17:58.529Z,100225.16
2018-11-06T21:20:28.345Z,100222.51
2018-11-06T21:22:57.926Z,100221.75
2018-11-06T21:25:27.787Z,100217.98
2018-11-06T21:27:57.416Z,100216.14
2018-11-06T21:30:27.088Z,100218.13
2018-11-06T21:32:56.974Z,100223.13
2018-11-06T21:35:26.631Z,100220.80
2018-11-06T21:37:56.296Z,100228.27
2018-11-06T21:40:25.829Z,100223.34
2018-11-06T21:42:58.377Z,100214.56
2018-11-06T21:45:28.256Z,100226.95
2018-11-06T21:47:58.665Z,100212.48
2018-11-06T21:50:28.291Z,100212.74
2018-11-06T21:53:00.308Z,100222.61
2018-11-06T21:55:30.138Z,100219.10
2018-11-06T21:58:00.923Z,100223.95
2018-11-06T22:00:31.992Z,100223.19
2018-11-06T22:03:01.784Z,100232.30
2018-11-06T22:05:31.432Z,100239.38
2018-11-06T22:08:01.000Z,100237.80
2018-11-06T22:10:30.934Z,100231.27
2018-11-06T22:13:00.694Z,100230.52
2018-11-06T22:15:30.637Z,100223.33
2018-11-06T22:18:00.376Z,100232.53
2018-11-06T22:20:30.102Z,100232.73
2018-11-06T22:23:03.492Z,100228.00
2018-11-06T22:25:34.539Z,100223.66
2018-11-06T22:28:04.568Z,100218.93
2018-11-06T22:30:35.908Z,100228.13
2018-11-06T22:33:05.675Z,100225.95
2018-11-06T22:35:35.494Z,100231.70
2018-11-06T22:38:05.392Z,100231.06
2018-11-06T22:40:35.872Z,100231.53
2018-11-06T22:43:05.990Z,100228.98
2018-11-06T22:45:37.332Z,100230.41
2018-11-06T22:48:06.975Z,100226.80
2018-11-06T22:50:39.412Z,100232.02
2018-11-06T22:53:09.517Z,100232.58
2018-11-06T22:55:41.195Z,100235.52
2018-11-06T22:58:10.844Z,100235.33
2018-11-06T23:00:47.211Z,100233.54
2018-11-06T23:03:17.192Z,100219.55
2018-11-06T23:05:46.886Z,100229.37
2018-11-06T23:08:21.621Z,100237.11
2018-11-06T23:10:51.582Z,100233.14
2018-11-06T23:13:21.944Z,100240.25
2018-11-06T23:15:51.678Z,100234.66
2018-11-06T23:18:21.894Z,100232.67
2018-11-06T23:20:51.276Z,100226.25
2018-11-06T23:23:21.355Z,100226.08
2018-11-06T23:25:52.581Z,100220.52
2018-11-06T23:28:23.098Z,100220.77
2018-11-06T23:30:54.248Z,100214.81
2018-11-06T23:33:26.540Z,100218.88
2018-11-06T23:35:58.038Z,100229.46
2018-11-06T23:38:28.018Z,100232.61
2018-11-06T23:40:57.874Z,100236.34
2018-11-06T23:43:28.851Z,100229.92
2018-11-06T23:45:59.199Z,100217.34
2018-11-06T23:48:28.845Z,100217.16
2018-11-06T23:50:58.647Z,100223.69
2018-11-06T23:53:27.999Z,100229.45
2018-11-06T23:55:57.808Z,100231.52
2018-11-06T23:58:27.411Z,100233.33
